sensor_id;sensor_type;location;lat;lon;timestamp;temperature;humidity
48454;DHT22;34261;55.678;12.464;2023-12-22T00:01:54;4.80;99.90
48454;DHT22;34261;55.678;12.464;2023-12-22T00:04:20;4.80;99.90
48454;DHT22;34261;55.678;12.464;2023-12-22T00:06:46;4.80;99.90
48454;DHT22;34261;55.678;12.464;2023-12-22T00:09:13;4.80;99.90
48454;DHT22;34261;55.678;12.464;2023-12-22T00:11:39;4.80;99.90
48454;DHT22;34261;55.678;12.464;2023-12-22T00:14:05;4.90;99.90
48454;DHT22;34261;55.678;12.464;2023-12-22T00:16:30;4.90;99.90
48454;DHT22;34261;55.678;12.464;2023-12-22T00:18:56;4.90;99.90
48454;DHT22;34261;55.678;12.464;2023-12-22T00:21:22;4.90;99.90
48454;DHT22;34261;55.678;12.464;2023-12-22T00:23:48;4.90;99.90
48454;DHT22;34261;55.678;12.464;2023-12-22T00:26:14;4.90;99.90
48454;DHT22;34261;55.678;12.464;2023-12-22T00:28:40;4.90;99.90
48454;DHT22;34261;55.678;12.464;2023-12-22T00:31:07;4.90;99.90
48454;DHT22;34261;55.678;12.464;2023-12-22T00:33:33;4.90;99.90
48454;DHT22;34261;55.678;12.464;2023-12-22T00:35:58;4.90;99.90
48454;DHT22;34261;55.678;12.464;2023-12-22T00:38:24;4.90;99.90
48454;DHT22;34261;55.678;12.464;2023-12-22T00:40:49;4.90;99.90
48454;DHT22;34261;55.678;12.464;2023-12-22T00:43:15;4.90;99.90
48454;DHT22;34261;55.678;12.464;2023-12-22T00:45:41;4.80;99.90
48454;DHT22;34261;55.678;12.464;2023-12-22T00:48:06;4.80;99.90
48454;DHT22;34261;55.678;12.464;2023-12-22T00:50:32;4.80;99.90
48454;DHT22;34261;55.678;12.464;2023-12-22T00:52:58;4.80;99.90
48454;DHT22;34261;55.678;12.464;2023-12-22T00:55:23;4.80;99.90
48454;DHT22;34261;55.678;12.464;2023-12-22T00:57:49;4.80;99.90
48454;DHT22;34261;55.678;12.464;2023-12-22T01:00:15;4.80;99.90
48454;DHT22;34261;55.678;12.464;2023-12-22T01:02:41;4.80;99.90
48454;DHT22;34261;55.678;12.464;2023-12-22T01:05:07;4.80;99.90
48454;DHT22;34261;55.678;12.464;2023-12-22T01:07:32;4.70;99.90
48454;DHT22;34261;55.678;12.464;2023-12-22T01:09:58;4.70;99.90
48454;DHT22;34261;55.678;12.464;2023-12-22T01:12:27;4.70;99.90
48454;DHT22;34261;55.678;12.464;2023-12-22T01:14:54;4.70;99.90
48454;DHT22;34261;55.678;12.464;2023-12-22T01:17:20;4.70;99.90
48454;DHT22;34261;55.678;12.464;2023-12-22T01:19:46;4.80;99.90
48454;DHT22;34261;55.678;12.464;2023-12-22T01:22:11;4.70;99.90
48454;DHT22;34261;55.678;12.464;2023-12-22T01:24:37;4.70;99.90
48454;DHT22;34261;55.678;12.464;2023-12-22T01:27:06;4.70;99.90
48454;DHT22;34261;55.678;12.464;2023-12-22T01:29:32;4.70;99.90
48454;DHT22;34261;55.678;12.464;2023-12-22T01:31:57;4.70;99.90
48454;DHT22;34261;55.678;12.464;2023-12-22T01:34:23;4.70;99.90
48454;DHT22;34261;55.678;12.464;2023-12-22T01:36:49;4.60;99.90
48454;DHT22;34261;55.678;12.464;2023-12-22T01:39:15;4.60;99.90
48454;DHT22;34261;55.678;12.464;2023-12-22T01:41:41;4.70;99.90
48454;DHT22;34261;55.678;12.464;2023-12-22T01:44:07;4.60;99.90
48454;DHT22;34261;55.678;12.464;2023-12-22T01:46:33;4.60;99.90
48454;DHT22;34261;55.678;12.464;2023-12-22T01:49:00;4.60;99.90
48454;DHT22;34261;55.678;12.464;2023-12-22T01:51:33;4.60;99.90
48454;DHT22;34261;55.678;12.464;2023-12-22T01:54:00;4.60;99.90
48454;DHT22;34261;55.678;12.464;2023-12-22T01:56:26;4.60;99.90
48454;DHT22;34261;55.678;12.464;2023-12-22T01:58:55;4.60;99.90
48454;DHT22;34261;55.678;12.464;2023-12-22T02:01:23;4.50;99.90
48454;DHT22;34261;55.678;12.464;2023-12-22T02:03:49;4.50;99.90
48454;DHT22;34261;55.678;12.464;2023-12-22T02:06:18;4.60;99.90
48454;DHT22;34261;55.678;12.464;2023-12-22T02:08:46;4.60;99.90
48454;DHT22;34261;55.678;12.464;2023-12-22T02:11:13;4.60;99.90
48454;DHT22;34261;55.678;12.464;2023-12-22T02:13:39;4.50;99.90
48454;DHT22;34261;55.678;12.464;2023-12-22T02:16:15;4.60;99.90
48454;DHT22;34261;55.678;12.464;2023-12-22T02:18:43;4.50;99.90
48454;DHT22;34261;55.678;12.464;2023-12-22T02:21:11;4.50;99.90
48454;DHT22;34261;55.678;12.464;2023-12-22T02:23:40;4.50;99.90
48454;DHT22;34261;55.678;12.464;2023-12-22T02:26:27;4.40;99.90
48454;DHT22;34261;55.678;12.464;2023-12-22T02:28:57;4.40;99.90
48454;DHT22;34261;55.678;12.464;2023-12-22T02:31:46;4.40;99.90
48454;DHT22;34261;55.678;12.464;2023-12-22T02:34:19;4.40;99.90
48454;DHT22;34261;55.678;12.464;2023-12-22T02:36:45;4.40;99.90
48454;DHT22;34261;55.678;12.464;2023-12-22T02:39:14;4.30;99.90
48454;DHT22;34261;55.678;12.464;2023-12-22T02:41:41;4.20;99.90
48454;DHT22;34261;55.678;12.464;2023-12-22T02:44:07;4.30;99.90
48454;DHT22;34261;55.678;12.464;2023-12-22T02:46:34;4.20;99.90
48454;DHT22;34261;55.678;12.464;2023-12-22T02:48:59;4.20;99.90
48454;DHT22;34261;55.678;12.464;2023-12-22T02:51:25;4.20;99.90
48454;DHT22;34261;55.678;12.464;2023-12-22T02:53:50;4.10;99.90
48454;DHT22;34261;55.678;12.464;2023-12-22T02:56:16;4.10;99.90
48454;DHT22;34261;55.678;12.464;2023-12-22T02:58:42;4.10;99.90
48454;DHT22;34261;55.678;12.464;2023-12-22T03:01:07;4.10;99.90
48454;DHT22;34261;55.678;12.464;2023-12-22T03:03:33;4.10;99.90
48454;DHT22;34261;55.678;12.464;2023-12-22T03:05:58;4.10;99.90
48454;DHT22;34261;55.678;12.464;2023-12-22T03:08:24;4.10;99.90
48454;DHT22;34261;55.678;12.464;2023-12-22T03:10:49;4.10;99.90
48454;DHT22;34261;55.678;12.464;2023-12-22T03:13:15;4.10;99.90
48454;DHT22;34261;55.678;12.464;2023-12-22T03:15:41;4.10;99.90
48454;DHT22;34261;55.678;12.464;2023-12-22T03:18:06;4.10;99.90
48454;DHT22;34261;55.678;12.464;2023-12-22T03:20:32;4.10;99.90
48454;DHT22;34261;55.678;12.464;2023-12-22T03:22:58;4.10;99.90
48454;DHT22;34261;55.678;12.464;2023-12-22T03:25:23;4.00;99.90
48454;DHT22;34261;55.678;12.464;2023-12-22T03:27:50;4.10;99.90
48454;DHT22;34261;55.678;12.464;2023-12-22T03:30:15;4.10;99.90
48454;DHT22;34261;55.678;12.464;2023-12-22T03:32:41;4.10;99.90
48454;DHT22;34261;55.678;12.464;2023-12-22T03:35:07;4.00;99.90
48454;DHT22;34261;55.678;12.464;2023-12-22T03:37:32;4.10;99.90
48454;DHT22;34261;55.678;12.464;2023-12-22T03:39:59;4.10;99.90
48454;DHT22;34261;55.678;12.464;2023-12-22T03:42:24;4.10;99.90
48454;DHT22;34261;55.678;12.464;2023-12-22T03:44:50;4.10;99.90
48454;DHT22;34261;55.678;12.464;2023-12-22T03:47:15;4.10;99.90
48454;DHT22;34261;55.678;12.464;2023-12-22T03:49:41;4.10;99.90
48454;DHT22;34261;55.678;12.464;2023-12-22T03:52:07;4.20;99.90
48454;DHT22;34261;55.678;12.464;2023-12-22T03:54:32;4.30;99.90
48454;DHT22;34261;55.678;12.464;2023-12-22T03:56:58;4.30;99.90
48454;DHT22;34261;55.678;12.464;2023-12-22T03:59:23;4.30;99.90
48454;DHT22;34261;55.678;12.464;2023-12-22T04:01:52;4.30;99.90
48454;DHT22;34261;55.678;12.464;2023-12-22T04:04:19;4.40;99.90
48454;DHT22;34261;55.678;12.464;2023-12-22T04:06:45;4.40;99.90
48454;DHT22;34261;55.678;12.464;2023-12-22T04:09:10;4.40;99.90
48454;DHT22;34261;55.678;12.464;2023-12-22T04:11:36;4.40;99.90
48454;DHT22;34261;55.678;12.464;2023-12-22T04:14:02;4.40;99.90
48454;DHT22;34261;55.678;12.464;2023-12-22T04:16:28;4.40;99.90
48454;DHT22;34261;55.678;12.464;2023-12-22T04:18:54;4.50;99.90
48454;DHT22;34261;55.678;12.464;2023-12-22T04:21:19;4.40;99.90
48454;DHT22;34261;55.678;12.464;2023-12-22T04:23:45;4.50;99.90
48454;DHT22;34261;55.678;12.464;2023-12-22T04:26:11;4.50;99.90
48454;DHT22;34261;55.678;12.464;2023-12-22T04:28:36;4.50;99.90
48454;DHT22;34261;55.678;12.464;2023-12-22T04:31:02;4.50;99.90
48454;DHT22;34261;55.678;12.464;2023-12-22T04:33:28;4.50;99.90
48454;DHT22;34261;55.678;12.464;2023-12-22T04:35:54;4.60;99.90
48454;DHT22;34261;55.678;12.464;2023-12-22T04:38:19;4.60;99.90
48454;DHT22;34261;55.678;12.464;2023-12-22T04:40:45;4.60;99.90
48454;DHT22;34261;55.678;12.464;2023-12-22T04:43:10;4.60;99.90
48454;DHT22;34261;55.678;12.464;2023-12-22T04:45:36;4.60;99.90
48454;DHT22;34261;55.678;12.464;2023-12-22T04:48:02;4.60;99.90
48454;DHT22;34261;55.678;12.464;2023-12-22T04:50:27;4.60;99.90
48454;DHT22;34261;55.678;12.464;2023-12-22T04:52:53;4.70;99.90
48454;DHT22;34261;55.678;12.464;2023-12-22T04:55:18;4.60;99.90
48454;DHT22;34261;55.678;12.464;2023-12-22T04:57:44;4.70;99.90
48454;DHT22;34261;55.678;12.464;2023-12-22T05:00:10;4.60;99.90
48454;DHT22;34261;55.678;12.464;2023-12-22T05:02:36;4.60;99.90
48454;DHT22;34261;55.678;12.464;2023-12-22T05:05:01;4.60;99.90
48454;DHT22;34261;55.678;12.464;2023-12-22T05:07:28;4.60;99.90
48454;DHT22;34261;55.678;12.464;2023-12-22T05:09:54;4.60;99.90
48454;DHT22;34261;55.678;12.464;2023-12-22T05:12:20;4.70;99.90
48454;DHT22;34261;55.678;12.464;2023-12-22T05:14:46;4.60;99.90
48454;DHT22;34261;55.678;12.464;2023-12-22T05:17:12;4.60;99.90
48454;DHT22;34261;55.678;12.464;2023-12-22T05:19:37;4.60;99.90
48454;DHT22;34261;55.678;12.464;2023-12-22T05:22:03;4.70;99.90
48454;DHT22;34261;55.678;12.464;2023-12-22T05:24:29;4.70;99.90
48454;DHT22;34261;55.678;12.464;2023-12-22T05:26:54;4.70;99.90
48454;DHT22;34261;55.678;12.464;2023-12-22T05:29:20;4.70;99.90
48454;DHT22;34261;55.678;12.464;2023-12-22T05:31:46;4.70;99.90
48454;DHT22;34261;55.678;12.464;2023-12-22T05:34:11;4.70;99.90
48454;DHT22;34261;55.678;12.464;2023-12-22T05:36:37;4.70;99.90
48454;DHT22;34261;55.678;12.464;2023-12-22T05:39:03;4.80;99.90
48454;DHT22;34261;55.678;12.464;2023-12-22T05:41:28;4.80;99.90
48454;DHT22;34261;55.678;12.464;2023-12-22T05:44:26;4.80;99.90
48454;DHT22;34261;55.678;12.464;2023-12-22T05:46:56;4.80;99.90
48454;DHT22;34261;55.678;12.464;2023-12-22T05:49:22;4.80;99.90
48454;DHT22;34261;55.678;12.464;2023-12-22T05:51:49;4.90;99.90
48454;DHT22;34261;55.678;12.464;2023-12-22T05:54:15;4.90;99.90
48454;DHT22;34261;55.678;12.464;2023-12-22T05:56:42;4.90;99.90
48454;DHT22;34261;55.678;12.464;2023-12-22T05:59:07;4.90;99.90
48454;DHT22;34261;55.678;12.464;2023-12-22T06:01:33;5.00;99.90
48454;DHT22;34261;55.678;12.464;2023-12-22T06:03:59;5.00;99.90
48454;DHT22;34261;55.678;12.464;2023-12-22T06:06:24;5.00;99.90
48454;DHT22;34261;55.678;12.464;2023-12-22T06:08:50;4.90;99.90
48454;DHT22;34261;55.678;12.464;2023-12-22T06:11:16;4.90;99.90
48454;DHT22;34261;55.678;12.464;2023-12-22T06:13:41;5.00;99.90
48454;DHT22;34261;55.678;12.464;2023-12-22T06:16:11;5.10;99.90
48454;DHT22;34261;55.678;12.464;2023-12-22T06:18:37;5.00;99.90
48454;DHT22;34261;55.678;12.464;2023-12-22T06:21:03;4.90;99.90
48454;DHT22;34261;55.678;12.464;2023-12-22T06:23:29;5.00;99.90
48454;DHT22;34261;55.678;12.464;2023-12-22T06:25:55;5.00;99.90
48454;DHT22;34261;55.678;12.464;2023-12-22T06:28:21;5.00;99.90
48454;DHT22;34261;55.678;12.464;2023-12-22T06:30:46;5.00;99.90
48454;DHT22;34261;55.678;12.464;2023-12-22T06:33:13;5.00;99.90
48454;DHT22;34261;55.678;12.464;2023-12-22T06:35:38;4.90;99.90
48454;DHT22;34261;55.678;12.464;2023-12-22T06:38:06;4.60;99.90
48454;DHT22;34261;55.678;12.464;2023-12-22T06:40:34;4.20;99.90
48454;DHT22;34261;55.678;12.464;2023-12-22T06:42:59;3.90;99.90
48454;DHT22;34261;55.678;12.464;2023-12-22T06:45:25;3.80;99.90
48454;DHT22;34261;55.678;12.464;2023-12-22T06:47:50;3.70;99.90
48454;DHT22;34261;55.678;12.464;2023-12-22T06:50:16;3.60;99.90
48454;DHT22;34261;55.678;12.464;2023-12-22T06:52:42;3.70;99.90
48454;DHT22;34261;55.678;12.464;2023-12-22T06:55:08;3.70;99.90
48454;DHT22;34261;55.678;12.464;2023-12-22T06:57:33;3.70;99.90
48454;DHT22;34261;55.678;12.464;2023-12-22T06:59:59;3.80;99.90
48454;DHT22;34261;55.678;12.464;2023-12-22T07:02:25;3.80;99.90
48454;DHT22;34261;55.678;12.464;2023-12-22T07:07:50;3.90;99.90
48454;DHT22;34261;55.678;12.464;2023-12-22T07:10:16;4.00;99.90
48454;DHT22;34261;55.678;12.464;2023-12-22T07:12:42;3.90;99.90
48454;DHT22;34261;55.678;12.464;2023-12-22T07:15:07;4.00;99.90
48454;DHT22;34261;55.678;12.464;2023-12-22T07:17:34;4.00;99.90
48454;DHT22;34261;55.678;12.464;2023-12-22T07:19:59;4.00;99.90
48454;DHT22;34261;55.678;12.464;2023-12-22T07:22:26;3.90;99.90
48454;DHT22;34261;55.678;12.464;2023-12-22T07:24:51;3.90;99.90
48454;DHT22;34261;55.678;12.464;2023-12-22T07:27:18;3.90;99.90
48454;DHT22;34261;55.678;12.464;2023-12-22T07:29:44;4.00;99.90
48454;DHT22;34261;55.678;12.464;2023-12-22T07:32:09;3.90;99.90
48454;DHT22;34261;55.678;12.464;2023-12-22T07:34:35;3.90;99.90
48454;DHT22;34261;55.678;12.464;2023-12-22T07:37:01;3.80;99.90
48454;DHT22;34261;55.678;12.464;2023-12-22T07:39:26;3.80;99.90
48454;DHT22;34261;55.678;12.464;2023-12-22T07:41:52;3.80;99.90
48454;DHT22;34261;55.678;12.464;2023-12-22T07:44:18;3.90;99.90
48454;DHT22;34261;55.678;12.464;2023-12-22T07:46:43;4.00;99.90
48454;DHT22;34261;55.678;12.464;2023-12-22T07:49:09;4.00;99.90
48454;DHT22;34261;55.678;12.464;2023-12-22T07:51:35;4.10;99.90
48454;DHT22;34261;55.678;12.464;2023-12-22T07:54:01;4.10;99.90
48454;DHT22;34261;55.678;12.464;2023-12-22T07:56:26;4.10;99.90
48454;DHT22;34261;55.678;12.464;2023-12-22T07:58:52;4.20;99.90
48454;DHT22;34261;55.678;12.464;2023-12-22T08:01:18;4.20;99.90
48454;DHT22;34261;55.678;12.464;2023-12-22T08:03:44;4.20;99.90
48454;DHT22;34261;55.678;12.464;2023-12-22T08:06:10;4.30;99.90
48454;DHT22;34261;55.678;12.464;2023-12-22T08:08:35;4.30;99.90
48454;DHT22;34261;55.678;12.464;2023-12-22T08:11:02;4.30;99.90
48454;DHT22;34261;55.678;12.464;2023-12-22T08:13:27;4.40;99.90
48454;DHT22;34261;55.678;12.464;2023-12-22T08:15:53;4.40;99.90
48454;DHT22;34261;55.678;12.464;2023-12-22T08:18:18;4.50;99.90
48454;DHT22;34261;55.678;12.464;2023-12-22T08:20:44;4.50;99.90
48454;DHT22;34261;55.678;12.464;2023-12-22T08:23:10;4.50;99.90
48454;DHT22;34261;55.678;12.464;2023-12-22T08:25:37;4.50;99.90
48454;DHT22;34261;55.678;12.464;2023-12-22T08:28:04;4.40;99.90
48454;DHT22;34261;55.678;12.464;2023-12-22T08:30:30;4.30;99.90
48454;DHT22;34261;55.678;12.464;2023-12-22T08:32:55;4.20;99.90
48454;DHT22;34261;55.678;12.464;2023-12-22T08:35:21;4.00;99.90
48454;DHT22;34261;55.678;12.464;2023-12-22T08:37:47;3.90;99.90
48454;DHT22;34261;55.678;12.464;2023-12-22T08:40:13;3.80;99.90
48454;DHT22;34261;55.678;12.464;2023-12-22T08:42:38;3.70;99.90
48454;DHT22;34261;55.678;12.464;2023-12-22T08:45:05;3.70;99.90
48454;DHT22;34261;55.678;12.464;2023-12-22T08:47:31;3.60;99.90
48454;DHT22;34261;55.678;12.464;2023-12-22T08:49:56;3.60;99.90
48454;DHT22;34261;55.678;12.464;2023-12-22T08:52:22;3.50;99.90
48454;DHT22;34261;55.678;12.464;2023-12-22T08:54:47;3.50;99.90
48454;DHT22;34261;55.678;12.464;2023-12-22T08:57:13;3.50;99.90
48454;DHT22;34261;55.678;12.464;2023-12-22T08:59:39;3.50;99.90
48454;DHT22;34261;55.678;12.464;2023-12-22T09:02:04;3.50;99.90
48454;DHT22;34261;55.678;12.464;2023-12-22T09:04:31;3.50;99.90
48454;DHT22;34261;55.678;12.464;2023-12-22T09:06:57;3.60;99.90
48454;DHT22;34261;55.678;12.464;2023-12-22T09:09:22;3.70;99.90
48454;DHT22;34261;55.678;12.464;2023-12-22T09:11:49;3.80;99.90
48454;DHT22;34261;55.678;12.464;2023-12-22T09:14:15;3.80;99.90
48454;DHT22;34261;55.678;12.464;2023-12-22T09:16:41;3.90;99.90
48454;DHT22;34261;55.678;12.464;2023-12-22T09:19:08;3.90;99.90
48454;DHT22;34261;55.678;12.464;2023-12-22T09:21:33;3.90;99.90
48454;DHT22;34261;55.678;12.464;2023-12-22T09:23:59;4.00;99.90
48454;DHT22;34261;55.678;12.464;2023-12-22T09:26:25;4.10;99.90
48454;DHT22;34261;55.678;12.464;2023-12-22T09:28:51;4.10;99.90
48454;DHT22;34261;55.678;12.464;2023-12-22T09:31:17;4.20;99.90
48454;DHT22;34261;55.678;12.464;2023-12-22T09:33:42;4.40;99.90
48454;DHT22;34261;55.678;12.464;2023-12-22T09:36:08;4.50;99.90
48454;DHT22;34261;55.678;12.464;2023-12-22T09:38:34;4.60;99.90
48454;DHT22;34261;55.678;12.464;2023-12-22T09:41:01;4.60;99.90
48454;DHT22;34261;55.678;12.464;2023-12-22T09:43:26;4.60;99.90
48454;DHT22;34261;55.678;12.464;2023-12-22T09:45:53;4.70;99.90
48454;DHT22;34261;55.678;12.464;2023-12-22T09:48:19;4.70;99.90
48454;DHT22;34261;55.678;12.464;2023-12-22T09:50:52;4.80;99.90
48454;DHT22;34261;55.678;12.464;2023-12-22T09:53:19;4.80;99.90
48454;DHT22;34261;55.678;12.464;2023-12-22T09:55:46;4.90;99.90
48454;DHT22;34261;55.678;12.464;2023-12-22T09:58:13;4.90;99.90
48454;DHT22;34261;55.678;12.464;2023-12-22T10:00:40;5.00;99.90
48454;DHT22;34261;55.678;12.464;2023-12-22T10:03:06;5.00;99.90
48454;DHT22;34261;55.678;12.464;2023-12-22T10:05:33;5.10;99.90
48454;DHT22;34261;55.678;12.464;2023-12-22T10:08:00;5.10;99.90
48454;DHT22;34261;55.678;12.464;2023-12-22T10:10:28;5.10;99.90
48454;DHT22;34261;55.678;12.464;2023-12-22T10:12:54;5.10;99.90
48454;DHT22;34261;55.678;12.464;2023-12-22T10:15:21;5.00;99.90
48454;DHT22;34261;55.678;12.464;2023-12-22T10:17:50;5.00;99.90
48454;DHT22;34261;55.678;12.464;2023-12-22T10:20:16;5.10;99.90
48454;DHT22;34261;55.678;12.464;2023-12-22T10:22:42;5.10;99.90
48454;DHT22;34261;55.678;12.464;2023-12-22T10:25:08;5.10;99.90
48454;DHT22;34261;55.678;12.464;2023-12-22T10:27:36;5.10;99.90
48454;DHT22;34261;55.678;12.464;2023-12-22T10:30:03;5.20;99.90
48454;DHT22;34261;55.678;12.464;2023-12-22T10:32:29;5.10;99.90
48454;DHT22;34261;55.678;12.464;2023-12-22T10:34:56;5.10;99.90
48454;DHT22;34261;55.678;12.464;2023-12-22T10:37:25;5.10;99.90
48454;DHT22;34261;55.678;12.464;2023-12-22T10:39:54;5.20;99.90
48454;DHT22;34261;55.678;12.464;2023-12-22T10:42:20;5.20;99.90
48454;DHT22;34261;55.678;12.464;2023-12-22T10:44:46;5.20;99.90
48454;DHT22;34261;55.678;12.464;2023-12-22T10:47:13;5.20;99.90
48454;DHT22;34261;55.678;12.464;2023-12-22T10:49:39;5.30;99.90
48454;DHT22;34261;55.678;12.464;2023-12-22T10:52:05;5.30;99.90
48454;DHT22;34261;55.678;12.464;2023-12-22T10:54:31;5.30;99.90
48454;DHT22;34261;55.678;12.464;2023-12-22T10:57:00;5.30;99.90
48454;DHT22;34261;55.678;12.464;2023-12-22T10:59:28;5.40;99.90
48454;DHT22;34261;55.678;12.464;2023-12-22T11:01:58;5.30;99.90
48454;DHT22;34261;55.678;12.464;2023-12-22T11:04:29;5.30;99.90
48454;DHT22;34261;55.678;12.464;2023-12-22T11:06:59;5.30;99.90
48454;DHT22;34261;55.678;12.464;2023-12-22T11:09:31;5.30;99.90
48454;DHT22;34261;55.678;12.464;2023-12-22T11:11:57;5.30;99.90
48454;DHT22;34261;55.678;12.464;2023-12-22T11:14:25;5.30;99.90
48454;DHT22;34261;55.678;12.464;2023-12-22T11:16:53;5.40;99.90
48454;DHT22;34261;55.678;12.464;2023-12-22T11:19:20;5.40;99.90
48454;DHT22;34261;55.678;12.464;2023-12-22T11:21:47;5.30;99.90
48454;DHT22;34261;55.678;12.464;2023-12-22T11:24:16;5.40;99.90
48454;DHT22;34261;55.678;12.464;2023-12-22T11:26:42;5.40;99.90
48454;DHT22;34261;55.678;12.464;2023-12-22T11:29:09;5.40;99.90
48454;DHT22;34261;55.678;12.464;2023-12-22T11:31:36;5.40;99.90
48454;DHT22;34261;55.678;12.464;2023-12-22T11:34:05;5.40;99.90
48454;DHT22;34261;55.678;12.464;2023-12-22T11:36:31;5.40;99.90
48454;DHT22;34261;55.678;12.464;2023-12-22T11:38:57;5.30;99.90
48454;DHT22;34261;55.678;12.464;2023-12-22T11:41:26;5.30;99.90
48454;DHT22;34261;55.678;12.464;2023-12-22T11:43:54;5.20;99.90
48454;DHT22;34261;55.678;12.464;2023-12-22T11:46:21;5.20;99.90
48454;DHT22;34261;55.678;12.464;2023-12-22T11:48:50;5.20;99.90
48454;DHT22;34261;55.678;12.464;2023-12-22T11:51:17;5.20;99.90
48454;DHT22;34261;55.678;12.464;2023-12-22T11:53:43;5.30;99.90
48454;DHT22;34261;55.678;12.464;2023-12-22T11:56:10;5.30;99.90
48454;DHT22;34261;55.678;12.464;2023-12-22T11:58:46;5.20;99.90
48454;DHT22;34261;55.678;12.464;2023-12-22T12:01:21;5.10;99.90
48454;DHT22;34261;55.678;12.464;2023-12-22T12:04:02;5.00;99.90
48454;DHT22;34261;55.678;12.464;2023-12-22T12:09:04;5.00;99.90
48454;DHT22;34261;55.678;12.464;2023-12-22T12:14:23;5.00;99.90
48454;DHT22;34261;55.678;12.464;2023-12-22T12:17:03;4.90;99.90
48454;DHT22;34261;55.678;12.464;2023-12-22T12:19:31;4.90;99.90
48454;DHT22;34261;55.678;12.464;2023-12-22T12:21:58;4.90;99.90
48454;DHT22;34261;55.678;12.464;2023-12-22T12:24:25;4.80;99.90
48454;DHT22;34261;55.678;12.464;2023-12-22T12:26:51;4.70;99.90
48454;DHT22;34261;55.678;12.464;2023-12-22T12:29:17;4.70;99.90
48454;DHT22;34261;55.678;12.464;2023-12-22T12:31:43;4.70;99.90
48454;DHT22;34261;55.678;12.464;2023-12-22T12:34:10;4.70;99.90
48454;DHT22;34261;55.678;12.464;2023-12-22T12:36:37;4.70;99.90
48454;DHT22;34261;55.678;12.464;2023-12-22T12:39:08;4.60;99.90
48454;DHT22;34261;55.678;12.464;2023-12-22T12:41:39;4.70;99.90
48454;DHT22;34261;55.678;12.464;2023-12-22T12:44:06;4.60;99.90
48454;DHT22;34261;55.678;12.464;2023-12-22T12:46:39;4.60;99.90
48454;DHT22;34261;55.678;12.464;2023-12-22T12:49:11;4.60;99.90
48454;DHT22;34261;55.678;12.464;2023-12-22T12:51:42;4.60;99.90
48454;DHT22;34261;55.678;12.464;2023-12-22T12:54:09;4.60;99.90
48454;DHT22;34261;55.678;12.464;2023-12-22T12:56:42;4.70;99.90
48454;DHT22;34261;55.678;12.464;2023-12-22T12:59:15;4.70;99.90
48454;DHT22;34261;55.678;12.464;2023-12-22T13:01:43;4.70;99.90
48454;DHT22;34261;55.678;12.464;2023-12-22T13:04:13;4.70;99.90
48454;DHT22;34261;55.678;12.464;2023-12-22T13:06:49;4.70;99.90
48454;DHT22;34261;55.678;12.464;2023-12-22T13:09:15;4.60;99.90
48454;DHT22;34261;55.678;12.464;2023-12-22T13:11:42;4.60;99.90
48454;DHT22;34261;55.678;12.464;2023-12-22T13:14:12;4.70;99.90
48454;DHT22;34261;55.678;12.464;2023-12-22T13:16:39;4.60;99.90
48454;DHT22;34261;55.678;12.464;2023-12-22T13:19:05;4.60;99.90
48454;DHT22;34261;55.678;12.464;2023-12-22T13:21:31;4.60;99.90
48454;DHT22;34261;55.678;12.464;2023-12-22T13:24:14;4.60;99.90
48454;DHT22;34261;55.678;12.464;2023-12-22T13:26:41;4.60;99.90
48454;DHT22;34261;55.678;12.464;2023-12-22T13:29:08;4.50;99.90
48454;DHT22;34261;55.678;12.464;2023-12-22T13:31:36;4.50;99.90
48454;DHT22;34261;55.678;12.464;2023-12-22T13:34:03;4.60;99.90
48454;DHT22;34261;55.678;12.464;2023-12-22T13:36:34;4.70;99.90
48454;DHT22;34261;55.678;12.464;2023-12-22T13:39:02;4.60;99.90
48454;DHT22;34261;55.678;12.464;2023-12-22T13:41:35;4.70;99.90
48454;DHT22;34261;55.678;12.464;2023-12-22T13:44:06;4.60;99.90
48454;DHT22;34261;55.678;12.464;2023-12-22T13:46:33;4.60;99.90
48454;DHT22;34261;55.678;12.464;2023-12-22T13:49:01;4.70;99.90
48454;DHT22;34261;55.678;12.464;2023-12-22T13:51:37;4.70;99.90
48454;DHT22;34261;55.678;12.464;2023-12-22T13:54:03;4.60;99.90
48454;DHT22;34261;55.678;12.464;2023-12-22T13:56:33;4.70;99.90
48454;DHT22;34261;55.678;12.464;2023-12-22T13:59:00;4.70;99.90
48454;DHT22;34261;55.678;12.464;2023-12-22T14:01:26;4.70;99.90
48454;DHT22;34261;55.678;12.464;2023-12-22T14:03:53;4.70;99.90
48454;DHT22;34261;55.678;12.464;2023-12-22T14:06:20;4.70;99.90
48454;DHT22;34261;55.678;12.464;2023-12-22T14:08:45;4.80;99.90
48454;DHT22;34261;55.678;12.464;2023-12-22T14:11:11;4.70;99.90
48454;DHT22;34261;55.678;12.464;2023-12-22T14:13:36;4.70;99.90
48454;DHT22;34261;55.678;12.464;2023-12-22T14:16:06;4.80;99.90
48454;DHT22;34261;55.678;12.464;2023-12-22T14:18:32;4.80;99.90
48454;DHT22;34261;55.678;12.464;2023-12-22T14:20:57;4.80;99.90
48454;DHT22;34261;55.678;12.464;2023-12-22T14:23:24;4.80;99.90
48454;DHT22;34261;55.678;12.464;2023-12-22T14:25:50;4.70;99.90
48454;DHT22;34261;55.678;12.464;2023-12-22T14:28:15;4.70;99.90
48454;DHT22;34261;55.678;12.464;2023-12-22T14:30:41;4.70;99.90
48454;DHT22;34261;55.678;12.464;2023-12-22T14:33:07;4.70;99.90
48454;DHT22;34261;55.678;12.464;2023-12-22T14:35:32;4.60;99.90
48454;DHT22;34261;55.678;12.464;2023-12-22T14:37:58;4.60;99.90
48454;DHT22;34261;55.678;12.464;2023-12-22T14:40:23;4.60;99.90
48454;DHT22;34261;55.678;12.464;2023-12-22T14:42:50;4.50;99.90
48454;DHT22;34261;55.678;12.464;2023-12-22T14:45:16;4.60;99.90
48454;DHT22;34261;55.678;12.464;2023-12-22T14:47:42;4.70;99.90
48454;DHT22;34261;55.678;12.464;2023-12-22T14:50:08;4.60;99.90
48454;DHT22;34261;55.678;12.464;2023-12-22T14:52:33;4.60;99.90
48454;DHT22;34261;55.678;12.464;2023-12-22T14:55:00;4.60;99.90
48454;DHT22;34261;55.678;12.464;2023-12-22T14:57:26;4.50;99.90
48454;DHT22;34261;55.678;12.464;2023-12-22T14:59:54;4.50;99.90
48454;DHT22;34261;55.678;12.464;2023-12-22T15:02:20;4.50;99.90
48454;DHT22;34261;55.678;12.464;2023-12-22T15:04:45;4.60;99.90
48454;DHT22;34261;55.678;12.464;2023-12-22T15:07:17;4.60;99.90
48454;DHT22;34261;55.678;12.464;2023-12-22T15:09:44;4.60;99.90
48454;DHT22;34261;55.678;12.464;2023-12-22T15:12:11;4.60;99.90
48454;DHT22;34261;55.678;12.464;2023-12-22T15:14:37;4.50;99.90
48454;DHT22;34261;55.678;12.464;2023-12-22T15:17:03;4.30;99.90
48454;DHT22;34261;55.678;12.464;2023-12-22T15:19:28;4.10;99.90
48454;DHT22;34261;55.678;12.464;2023-12-22T15:21:54;4.00;99.90
48454;DHT22;34261;55.678;12.464;2023-12-22T15:24:20;4.10;99.90
48454;DHT22;34261;55.678;12.464;2023-12-22T15:26:46;4.10;99.90
48454;DHT22;34261;55.678;12.464;2023-12-22T15:29:11;4.10;99.90
48454;DHT22;34261;55.678;12.464;2023-12-22T15:31:37;4.10;99.90
48454;DHT22;34261;55.678;12.464;2023-12-22T15:34:03;4.20;99.90
48454;DHT22;34261;55.678;12.464;2023-12-22T15:36:28;4.20;99.90